Connecticut River @ Holyoke, Ma

Connecticut River at Holyoke
 Total Drainage Area: 8,309 sq. miles 
 Drainage Area Controlled by Corps Dams: 1,154 sq. miles (14%) 
 Warning Flow/Stage: 75,800 cfs / 22.0 feet 
 Flood Flow/Stage: 104,600 cfs / 26.5 feet 
Date Time
(Eastern)
Stage
(ft)
Flow
(cfs)
CSM
(cfs / sq. mi.)
Jan-31 02:30 pm 10.61 19,319 2.3
Jan-31 01:30 pm 10.63 19,392 2.3
Jan-31 12:30 pm 10.61 19,319 2.3
Jan-31 11:30 am 10.62 19,355 2.3
Jan-31 10:30 am 10.59 19,247 2.3
Jan-31 09:30 am 10.57 19,176 2.3
Jan-31 08:30 am 10.61 19,319 2.3
Jan-31 07:30 am 10.54 19,068 2.3
Jan-31 06:30 am 10.51 18,960 2.3
Jan-31 05:30 am 10.48 18,853 2.3
Jan-31 04:30 am 10.45 18,746 2.3
Jan-31 03:30 am 10.43 18,674 2.3
Jan-31 02:30 am 10.41 18,603 2.2
Jan-31 01:30 am 10.37 18,461 2.2
Jan-31 12:30 am 10.34 18,354 2.2
Jan-30 11:30 pm 10.32 18,283 2.2
Jan-30 10:30 pm 10.30 18,212 2.2
Jan-30 09:30 pm 10.28 18,141 2.2
Jan-30 08:30 pm 10.23 17,965 2.2
Jan-30 07:30 pm 10.24 18,000 2.2
Jan-30 06:30 pm 10.25 18,035 2.2
Jan-30 05:30 pm 10.29 18,177 2.2
Jan-30 04:30 pm 10.34 18,354 2.2
Jan-30 03:30 pm 10.43 18,674 2.3
Jan-30 02:30 pm 10.61 19,319 2.3
Report Generated January 31, 2023 02:58 pm